Time;durP1;ratioP1;P1;durP2;ratioP2;P2;SDS_P1;SDS_P2;PMS_P1;PMS_P2;Temp;Humidity;BMP_temperature;BMP_pressure;BME280_temperature;BME280_humidity;BME280_pressure;Samples;Min_cycle;Max_cycle;Signal;HPM_P1;HPM_P2
2022/12/21 00:00:37;;;;;;;6.30;5.70;;;10.00;54.00;;;;;;20740;6844;117804;-76
2022/12/21 00:03:02;;;;;;;5.90;5.50;;;9.80;55.20;;;;;;20737;6844;118615;-77
2022/12/21 00:05:29;;;;;;;6.20;5.60;;;9.30;56.60;;;;;;20750;6842;117098;-77
2022/12/21 00:07:54;;;;;;;7.07;6.47;;;9.30;56.60;;;;;;20546;6843;286376;-76
2022/12/21 00:10:20;;;;;;;7.12;6.62;;;9.30;56.90;;;;;;20537;6843;308950;-76
2022/12/21 00:12:45;;;;;;;7.62;7.03;;;9.50;56.70;;;;;;20537;6843;307165;-78
2022/12/21 00:15:11;;;;;;;7.53;6.55;;;9.70;56.10;;;;;;20740;6843;118385;-77
2022/12/21 00:17:36;;;;;;;8.20;7.45;;;9.60;56.20;;;;;;20546;6843;336321;-76
2022/12/21 00:20:02;;;;;;;8.07;7.27;;;9.60;56.50;;;;;;20759;6843;120074;-76
2022/12/21 00:22:28;;;;;;;8.10;7.50;;;9.50;56.70;;;;;;20546;6843;336731;-76
2022/12/21 00:24:53;;;;;;;8.80;8.00;;;9.50;57.20;;;;;;20549;6843;278942;-76
2022/12/21 00:27:19;;;;;;;8.98;8.32;;;9.70;56.90;;;;;;20526;6843;297617;-76
2022/12/21 00:29:44;;;;;;;8.47;7.77;;;9.80;56.40;;;;;;20754;6843;118107;-76
2022/12/21 00:32:10;;;;;;;9.80;9.03;;;9.70;56.50;;;;;;20541;6843;339455;-78
2022/12/21 00:34:36;;;;;;;9.18;8.27;;;9.40;57.00;;;;;;20753;6843;117292;-76
2022/12/21 00:37:03;;;;;;;9.50;8.60;;;9.40;57.00;;;;;;20739;6843;118549;-76
2022/12/21 00:39:27;;;;;;;11.00;10.10;;;9.10;57.50;;;;;;20532;6843;308002;-78
2022/12/21 00:41:53;;;;;;;10.57;9.67;;;9.10;57.90;;;;;;20751;6843;117544;-76
2022/12/21 00:44:20;;;;;;;11.13;10.13;;;8.70;58.50;;;;;;20751;6844;118538;-76
2022/12/21 00:46:48;;;;;;;10.43;9.63;;;8.70;58.50;;;;;;20752;6844;118201;-76
2022/12/21 00:49:13;;;;;;;9.93;9.13;;;8.50;59.00;;;;;;20739;6844;118684;-76
2022/12/21 00:51:38;;;;;;;10.75;9.80;;;8.30;59.50;;;;;;20747;6844;117085;-76
2022/12/21 00:54:04;;;;;;;11.57;10.60;;;8.20;60.00;;;;;;20549;6844;288988;-76
2022/12/21 00:56:30;;;;;;;10.57;9.57;;;8.40;60.50;;;;;;20748;6844;118470;-78
2022/12/21 00:58:56;;;;;;;10.30;9.50;;;8.40;60.60;;;;;;20522;6844;307246;-77
2022/12/21 01:01:24;;;;;;;10.55;9.60;;;8.60;60.90;;;;;;20535;6844;312513;-76
2022/12/21 01:03:50;;;;;;;8.70;7.80;;;8.90;60.60;;;;;;20746;6844;117650;-76
2022/12/21 01:06:15;;;;;;;7.97;7.23;;;8.90;60.30;;;;;;20754;6844;117131;-76
2022/12/21 01:08:41;;;;;;;9.77;8.90;;;8.70;60.80;;;;;;20515;6844;340143;-76
2022/12/21 01:11:07;;;;;;;8.83;8.13;;;8.70;61.70;;;;;;20733;6844;119069;-78
2022/12/21 01:13:34;;;;;;;9.68;8.88;;;8.70;61.40;;;;;;20536;6844;335877;-76
2022/12/21 01:15:59;;;;;;;10.23;9.38;;;8.80;61.80;;;;;;20553;6842;308803;-76
2022/12/21 01:18:25;;;;;;;9.80;9.10;;;9.10;61.70;;;;;;20554;6843;279466;-76
2022/12/21 01:20:51;;;;;;;9.80;9.00;;;9.40;61.20;;;;;;20543;6843;309889;-76
2022/12/21 01:23:20;;;;;;;9.40;8.70;;;9.70;60.60;;;;;;20522;6843;307653;-77
2022/12/21 01:25:45;;;;;;;9.85;8.95;;;9.70;60.60;;;;;;20540;6843;277728;-77
2022/12/21 01:28:11;;;;;;;9.88;8.98;;;9.80;60.30;;;;;;20542;6843;335839;-77
2022/12/21 01:30:38;;;;;;;8.70;7.90;;;9.90;60.00;;;;;;20746;6843;120677;-76
2022/12/21 01:33:04;;;;;;;9.45;8.75;;;9.70;61.10;;;;;;20520;6843;306784;-78
2022/12/21 01:35:30;;;;;;;10.40;9.50;;;9.60;61.00;;;;;;20542;6843;308025;-77
2022/12/21 01:37:55;;;;;;;9.00;8.20;;;9.80;61.10;;;;;;20757;6843;122692;-76
2022/12/21 01:40:21;;;;;;;8.37;7.83;;;9.60;61.00;;;;;;20740;6843;116892;-76
2022/12/21 01:42:47;;;;;;;9.67;8.90;;;9.30;61.70;;;;;;20537;6843;308998;-77
2022/12/21 01:45:28;;;;;;;8.47;7.77;;;9.30;62.40;;;;;;20734;6843;118249;-77
2022/12/21 01:48:00;;;;;;;8.57;7.95;;;9.30;62.50;;;;;;20539;6843;278475;-76
2022/12/21 01:50:26;;;;;;;9.65;8.75;;;9.30;63.20;;;;;;20536;6843;277329;-77
2022/12/21 01:52:52;;;;;;;9.93;9.18;;;9.60;63.00;;;;;;20526;6843;336354;-76
2022/12/21 01:55:17;;;;;;;9.57;8.87;;;9.80;62.50;;;;;;20531;6844;295686;-76
2022/12/21 01:57:43;;;;;;;9.57;8.77;;;9.90;61.60;;;;;;20750;6844;117150;-76
2022/12/21 02:00:09;;;;;;;9.73;8.90;;;9.70;61.50;;;;;;20526;6844;307223;-76
2022/12/21 02:02:38;;;;;;;10.70;9.80;;;9.70;62.10;;;;;;20538;6844;307592;-76
2022/12/21 02:05:23;;;;;;;9.20;8.33;;;9.80;61.90;;;;;;20713;6844;118157;-77
2022/12/21 02:07:49;;;;;;;8.90;8.10;;;9.20;63.40;;;;;;20392;6844;118135;-77
2022/12/21 02:10:15;;;;;;;11.60;10.50;;;9.20;62.70;;;;;;20534;6844;293775;-77
2022/12/21 02:12:40;;;;;;;12.82;9.60;;;9.20;63.30;;;;;;20752;6844;118377;-77
2022/12/21 02:15:06;;;;;;;10.33;9.37;;;9.10;63.20;;;;;;20727;6844;118297;-77
2022/12/21 02:17:48;;;;;;;9.87;9.03;;;8.90;63.70;;;;;;20756;6844;117282;-77
2022/12/21 02:20:34;;;;;;;13.10;11.80;;;8.70;64.40;;;;;;20512;6844;306821;-77
2022/12/21 02:22:59;;;;;;;13.10;12.03;;;8.80;64.80;;;;;;20181;6844;307401;-78
2022/12/21 02:25:49;;;;;;;11.68;10.50;;;9.00;63.50;;;;;;20731;6844;118613;-77
2022/12/21 02:28:48;;;;;;;11.53;8.57;;;8.80;64.10;;;;;;20755;6842;117899;-77
2022/12/21 02:31:32;;;;;;;9.40;8.60;;;8.70;64.10;;;;;;20731;6843;118148;-77
2022/12/21 02:34:06;;;;;;;11.27;10.33;;;8.50;64.90;;;;;;20520;6843;309793;-77
2022/12/21 02:36:42;;;;;;;10.00;9.07;;;8.60;65.80;;;;;;20721;6843;117261;-77
2022/12/21 02:39:21;;;;;;;12.68;11.57;;;8.60;65.40;;;;;;20479;6843;308488;-77
2022/12/21 02:42:00;;;;;;;13.37;12.17;;;8.70;65.80;;;;;;20630;6862;117802;-79
2022/12/21 02:44:43;;;;;;;18.90;16.27;;;8.80;64.60;;;;;;20474;6862;278650;-76
2022/12/21 02:47:18;;;;;;;13.00;11.70;;;8.80;64.60;;;;;;20714;6843;118426;-76
2022/12/21 02:49:53;;;;;;;10.83;9.80;;;8.70;64.30;;;;;;20734;6843;118579;-76
2022/12/21 02:52:19;;;;;;;9.93;9.03;;;8.40;64.90;;;;;;20664;6843;119673;-76
2022/12/21 02:54:44;;;;;;;10.93;10.03;;;8.20;65.60;;;;;;20514;6843;306172;-76
2022/12/21 02:57:10;;;;;;;10.90;10.00;;;8.30;66.30;;;;;;20514;6843;338178;-76
2022/12/21 02:59:35;;;;;;;9.90;9.00;;;8.60;66.10;;;;;;20750;6843;117344;-76
2022/12/21 03:02:28;;;;;;;11.00;10.10;;;8.60;65.40;;;;;;20498;6843;332561;-77
2022/12/21 03:05:12;;;;;;;10.60;9.50;;;8.70;66.20;;;;;;20537;6843;306811;-77
2022/12/21 03:07:48;;;;;;;8.83;8.13;;;9.00;65.40;;;;;;20746;6844;118318;-76
2022/12/21 03:10:31;;;;;;;9.00;8.10;;;9.00;65.10;;;;;;20744;6844;122025;-77
2022/12/21 03:13:17;;;;;;;10.03;9.30;;;8.70;66.40;;;;;;20509;6844;278179;-77
2022/12/21 03:15:59;;;;;;;10.77;8.10;;;8.70;66.40;;;;;;20760;6844;117358;-76
2022/12/21 03:18:55;;;;;;;9.50;8.63;;;8.50;66.60;;;;;;20754;6844;118510;-76
2022/12/21 03:21:25;;;;;;;9.27;7.90;;;8.30;67.30;;;;;;20742;6844;117808;-77
2022/12/21 03:23:51;;;;;;;7.60;7.00;;;8.30;67.30;;;;;;20607;6844;119023;-77
2022/12/21 03:26:17;;;;;;;8.70;7.90;;;8.30;68.90;;;;;;20512;6844;310756;-77
2022/12/21 03:28:43;;;;;;;8.73;8.03;;;8.30;68.90;;;;;;20528;6844;307288;-76
2022/12/21 03:31:10;;;;;;;7.80;7.10;;;9.00;67.90;;;;;;20512;6844;281376;-77
2022/12/21 03:33:37;;;;;;;6.10;5.60;;;9.00;67.10;;;;;;20744;6844;117462;-77
2022/12/21 03:36:02;;;;;;;5.77;5.37;;;9.00;67.10;;;;;;20728;6844;117642;-77
2022/12/21 03:38:31;;;;;;;5.87;5.13;;;8.80;67.40;;;;;;20750;6844;118109;-77
2022/12/21 03:40:56;;;;;;;6.17;5.70;;;8.70;68.30;;;;;;20719;6842;117640;-78
2022/12/21 03:43:22;;;;;;;5.97;5.40;;;8.60;68.80;;;;;;20747;6843;117974;-77
2022/12/21 03:45:47;;;;;;;5.70;5.20;;;8.50;69.30;;;;;;20752;6843;117886;-77
2022/12/21 03:48:16;;;;;;;6.77;6.17;;;8.40;69.80;;;;;;20534;6843;308078;-77
2022/12/21 03:50:43;;;;;;;7.10;6.40;;;8.60;70.90;;;;;;20536;6843;309387;-76
2022/12/21 03:53:08;;;;;;;5.57;5.10;;;9.00;70.20;;;;;;20726;6843;117389;-77
2022/12/21 03:55:34;;;;;;;5.80;5.30;;;9.20;69.90;;;;;;20526;6843;277304;-76
2022/12/21 03:58:00;;;;;;;5.30;4.90;;;9.20;69.90;;;;;;20742;6843;116845;-77
2022/12/21 04:00:26;;;;;;;4.37;4.07;;;9.10;69.40;;;;;;20745;6843;117251;-77
2022/12/21 04:03:11;;;;;;;5.50;5.00;;;9.10;69.40;;;;;;20538;6843;318169;-77
2022/12/21 04:05:41;;;;;;;4.73;4.33;;;9.30;69.60;;;;;;20723;6843;117065;-77
2022/12/21 04:08:06;;;;;;;6.23;4.60;;;9.30;69.60;;;;;;20744;6843;116851;-77
2022/12/21 04:10:32;;;;;;;6.03;5.43;;;9.20;70.00;;;;;;20533;6843;309430;-77
2022/12/21 04:12:58;;;;;;;4.77;4.47;;;9.40;69.80;;;;;;20740;6843;149250;-78
2022/12/21 04:15:25;;;;;;;5.07;4.67;;;9.30;69.70;;;;;;20548;6843;282378;-77
2022/12/21 04:17:49;;;;;;;5.10;4.60;;;9.50;70.20;;;;;;20753;6844;116847;-77
2022/12/21 04:20:15;;;;;;;8.30;4.23;;;9.50;69.20;;;;;;20739;6844;117002;-77
2022/12/21 04:28:28;;;;;;;5.25;4.75;;;9.00;70.80;;;;;;20547;6844;277595;-76
2022/12/21 04:30:54;;;;;;;5.30;4.90;;;9.20;71.50;;;;;;20535;6844;278011;-76
2022/12/21 04:33:20;;;;;;;4.50;4.20;;;9.70;69.30;;;;;;20755;6844;117893;-76
2022/12/21 04:38:34;;;;;;;4.57;4.23;;;9.50;69.60;;;;;;20749;6844;118097;-74
2022/12/21 04:41:00;;;;;;;4.13;3.83;;;9.30;70.30;;;;;;20741;6844;146881;-77
2022/12/21 04:43:25;;;;;;;5.23;4.73;;;9.10;71.00;;;;;;20548;6844;313547;-77
2022/12/21 04:46:04;;;;;;;5.47;5.00;;;9.30;71.60;;;;;;20554;6844;278183;-76
2022/12/21 04:48:30;;;;;;;5.77;4.40;;;9.60;70.60;;;;;;20749;6844;116913;-77
2022/12/21 04:50:55;;;;;;;5.17;4.70;;;9.60;69.60;;;;;;20507;6842;280077;-77
2022/12/21 04:53:21;;;;;;;5.30;4.73;;;9.70;70.00;;;;;;20524;6843;307591;-77
2022/12/21 04:55:46;;;;;;;4.97;4.57;;;10.00;68.10;;;;;;20755;6843;116952;-77
2022/12/21 04:58:13;;;;;;;4.57;4.28;;;9.90;68.50;;;;;;20758;6843;118591;-78
2022/12/21 05:00:40;;;;;;;4.97;4.50;;;9.70;69.00;;;;;;20737;6843;119575;-78
2022/12/21 05:03:06;;;;;;;5.53;5.10;;;9.50;69.70;;;;;;20529;6843;337018;-79
2022/12/21 05:05:31;;;;;;;5.07;4.77;;;9.60;69.90;;;;;;20754;6843;117572;-77
2022/12/21 05:07:58;;;;;;;6.40;5.90;;;9.70;69.10;;;;;;20552;6843;336990;-76
2022/12/21 05:10:23;;;;;;;6.55;6.03;;;9.70;69.10;;;;;;20540;6843;309478;-76
2022/12/21 05:12:49;;;;;;;5.95;5.40;;;10.00;67.00;;;;;;20752;6843;117436;-76
2022/12/21 05:15:16;;;;;;;6.70;6.20;;;9.60;68.10;;;;;;20739;6843;118363;-76
2022/12/21 05:17:41;;;;;;;6.10;5.60;;;9.60;68.10;;;;;;20744;6843;117174;-76
2022/12/21 05:20:07;;;;;;;7.20;6.60;;;9.50;69.30;;;;;;20543;6843;286382;-77
2022/12/21 05:22:33;;;;;;;6.90;6.20;;;9.50;69.00;;;;;;20753;6843;116915;-77
2022/12/21 05:24:59;;;;;;;7.50;6.90;;;9.60;68.50;;;;;;20535;6843;278093;-74
2022/12/21 05:27:24;;;;;;;7.17;6.57;;;9.50;68.40;;;;;;20539;6843;309908;-74
2022/12/21 05:29:50;;;;;;;6.50;5.90;;;9.80;67.60;;;;;;20535;6844;307209;-73
2022/12/21 05:32:16;;;;;;;6.90;6.10;;;10.00;65.70;;;;;;20543;6844;307706;-73
2022/12/21 05:34:41;;;;;;;6.70;6.20;;;10.20;64.90;;;;;;20537;6844;323217;-73
2022/12/21 05:37:08;;;;;;;6.27;5.83;;;10.40;64.10;;;;;;20521;6844;338958;-74
2022/12/21 05:39:33;;;;;;;6.63;6.03;;;10.40;64.10;;;;;;20539;6844;314983;-73
2022/12/21 05:41:59;;;;;;;6.40;5.80;;;10.60;63.70;;;;;;20533;6844;308043;-74
2022/12/21 05:44:24;;;;;;;6.13;5.63;;;10.60;63.50;;;;;;20540;6844;336230;-73
2022/12/21 05:46:50;;;;;;;6.03;5.53;;;10.60;63.30;;;;;;20543;6844;281746;-74
2022/12/21 05:49:16;;;;;;;6.17;5.67;;;10.70;63.10;;;;;;20533;6844;277224;-75
2022/12/21 05:51:41;;;;;;;5.78;5.28;;;10.70;62.90;;;;;;20539;6844;281889;-75
2022/12/21 05:54:07;;;;;;;5.30;4.90;;;10.70;63.00;;;;;;20542;6844;339521;-75
2022/12/21 05:56:34;;;;;;;5.30;4.90;;;10.80;63.10;;;;;;20553;6844;279938;-75
2022/12/21 05:58:58;;;;;;;5.43;4.97;;;10.80;63.30;;;;;;20515;6844;307148;-75
2022/12/21 06:01:23;;;;;;;5.30;4.97;;;10.80;63.10;;;;;;20542;6844;277720;-75
2022/12/21 06:03:49;;;;;;;5.87;5.37;;;10.90;63.00;;;;;;20535;6842;335830;-75
2022/12/21 06:06:15;;;;;;;5.10;4.67;;;10.90;62.90;;;;;;20760;6843;117024;-75
2022/12/21 06:08:40;;;;;;;5.70;5.22;;;10.60;63.10;;;;;;20535;6843;278087;-75
2022/12/21 06:11:06;;;;;;;5.87;5.27;;;10.50;64.00;;;;;;20519;6843;291728;-72
2022/12/21 06:13:32;;;;;;;5.80;5.30;;;10.70;64.00;;;;;;20520;6843;338858;-76
2022/12/21 06:16:11;;;;;;;4.70;4.40;;;10.70;64.00;;;;;;20750;6843;117745;-77
2022/12/21 06:18:36;;;;;;;5.70;5.10;;;10.50;64.00;;;;;;20372;6843;307632;-71
2022/12/21 06:21:02;;;;;;;4.90;4.37;;;10.40;64.80;;;;;;20725;6843;119423;-75
2022/12/21 06:23:27;;;;;;;5.50;4.90;;;10.30;65.10;;;;;;20547;6843;278284;-74
2022/12/21 06:25:53;;;;;;;5.03;4.63;;;10.30;65.70;;;;;;20539;6843;306707;-73
2022/12/21 06:28:19;;;;;;;5.50;5.10;;;10.40;65.20;;;;;;20530;6843;277628;-73
2022/12/21 06:30:46;;;;;;;4.50;4.20;;;10.60;65.10;;;;;;20604;6843;117115;-74
2022/12/21 06:33:11;;;;;;;5.00;3.90;;;10.50;65.00;;;;;;20703;6843;118821;-73
2022/12/21 06:35:37;;;;;;;4.15;3.78;;;10.20;66.00;;;;;;20746;6843;117792;-73
2022/12/21 06:38:03;;;;;;;5.75;3.90;;;9.70;69.40;;;;;;20721;6843;118265;-73
2022/12/21 06:40:29;;;;;;;4.00;3.70;;;9.70;68.80;;;;;;20737;6844;118160;-73
2022/12/21 06:42:54;;;;;;;4.95;4.43;;;9.50;69.70;;;;;;20538;6844;280777;-73
2022/12/21 06:45:20;;;;;;;5.27;3.77;;;9.60;70.50;;;;;;20751;6844;117434;-73
2022/12/21 06:47:45;;;;;;;5.07;4.17;;;9.70;70.00;;;;;;20541;6844;306691;-73
2022/12/21 06:50:12;;;;;;;3.70;3.50;;;9.90;70.10;;;;;;20745;6844;118420;-73
2022/12/21 06:52:37;;;;;;;3.60;3.27;;;9.90;70.10;;;;;;20752;6844;116804;-73
2022/12/21 06:55:03;;;;;;;4.00;3.70;;;9.70;70.50;;;;;;20530;6844;277627;-74
2022/12/21 06:57:29;;;;;;;3.17;2.97;;;9.90;71.50;;;;;;20747;6844;121021;-72
2022/12/21 06:59:55;;;;;;;3.72;3.30;;;9.80;71.00;;;;;;20733;6844;119290;-73
2022/12/21 07:02:20;;;;;;;3.60;3.30;;;9.80;71.00;;;;;;20747;6844;118067;-73
2022/12/21 07:04:46;;;;;;;4.05;3.65;;;9.70;71.50;;;;;;20535;6844;309803;-73
2022/12/21 07:07:12;;;;;;;4.57;4.17;;;9.90;72.40;;;;;;20520;6844;336606;-73
2022/12/21 07:09:37;;;;;;;4.60;4.20;;;10.20;70.40;;;;;;20541;6844;307234;-73
2022/12/21 07:12:03;;;;;;;5.87;4.10;;;10.50;69.00;;;;;;20739;6844;117164;-73
2022/12/21 07:14:29;;;;;;;4.80;4.30;;;10.40;68.10;;;;;;20536;6842;310363;-73
2022/12/21 07:16:54;;;;;;;4.17;3.87;;;10.50;68.20;;;;;;20752;6843;117012;-73
2022/12/21 07:19:20;;;;;;;5.27;4.20;;;10.40;68.10;;;;;;20536;6843;307479;-73
2022/12/21 07:21:46;;;;;;;7.03;4.20;;;10.40;68.10;;;;;;20749;6843;117344;-73
2022/12/21 07:24:12;;;;;;;3.50;3.20;;;10.40;68.10;;;;;;20744;6843;119238;-73
2022/12/21 07:26:37;;;;;;;5.60;4.85;;;10.20;68.80;;;;;;20751;6843;117077;-73
2022/12/21 07:29:03;;;;;;;5.35;4.72;;;10.00;69.50;;;;;;20733;6843;118335;-73
2022/12/21 07:31:28;;;;;;;8.03;7.23;;;9.80;71.40;;;;;;20530;6843;337068;-73
2022/12/21 07:33:54;;;;;;;11.20;8.27;;;9.90;71.90;;;;;;20755;6843;116916;-72
2022/12/21 07:36:19;;;;;;;6.80;6.30;;;10.00;70.20;;;;;;20745;6843;118287;-72
2022/12/21 07:38:45;;;;;;;6.33;5.80;;;9.90;71.50;;;;;;20750;6843;117051;-72
2022/12/21 07:41:11;;;;;;;5.90;5.40;;;9.70;72.10;;;;;;20731;6843;118612;-72
2022/12/21 07:43:36;;;;;;;5.90;5.30;;;9.60;72.60;;;;;;20747;6843;117013;-72
2022/12/21 07:46:02;;;;;;;7.82;7.10;;;9.50;73.20;;;;;;20537;6843;338550;-72
2022/12/21 07:48:28;;;;;;;8.43;7.55;;;10.00;71.00;;;;;;20540;6843;277636;-72
2022/12/21 07:50:54;;;;;;;6.50;6.00;;;10.10;70.90;;;;;;20738;6843;117939;-72
2022/12/21 07:53:20;;;;;;;5.57;5.03;;;9.90;71.10;;;;;;20731;6844;118350;-73
2022/12/21 07:55:45;;;;;;;5.33;4.93;;;9.90;71.10;;;;;;20748;6844;117881;-72
2022/12/21 07:58:12;;;;;;;6.47;4.80;;;9.70;72.70;;;;;;20734;6844;116875;-72
2022/12/21 08:00:37;;;;;;;5.03;4.63;;;9.60;72.60;;;;;;20748;6844;118114;-72
2022/12/21 08:03:03;;;;;;;5.37;4.87;;;9.50;73.70;;;;;;20731;6844;117424;-75
2022/12/21 08:05:28;;;;;;;5.63;5.00;;;9.50;73.70;;;;;;20744;6844;117084;-74
2022/12/21 08:07:54;;;;;;;6.30;4.60;;;9.40;74.10;;;;;;20759;6844;116930;-71
2022/12/21 08:10:20;;;;;;;6.40;5.80;;;9.40;74.60;;;;;;20532;6844;307167;-71
2022/12/21 08:12:45;;;;;;;5.17;4.67;;;9.60;74.90;;;;;;20751;6844;118103;-71
2022/12/21 08:15:11;;;;;;;8.38;6.90;;;9.70;73.70;;;;;;20530;6844;280566;-72
2022/12/21 08:17:36;;;;;;;8.18;7.43;;;10.00;72.70;;;;;;20539;6844;307939;-71
2022/12/21 08:20:02;;;;;;;6.95;6.25;;;10.30;71.30;;;;;;20756;6844;117060;-72
2022/12/21 08:22:27;;;;;;;7.50;6.40;;;10.40;70.30;;;;;;20538;6844;342170;-72
2022/12/21 08:24:53;;;;;;;5.73;4.60;;;10.50;70.40;;;;;;20760;6844;118524;-72
2022/12/21 08:27:19;;;;;;;5.53;5.05;;;10.50;69.90;;;;;;20534;6842;312542;-71
2022/12/21 08:29:44;;;;;;;6.20;4.40;;;10.60;69.90;;;;;;20762;6843;121542;-73
2022/12/21 08:32:10;;;;;;;5.28;4.82;;;10.60;69.60;;;;;;20552;6843;321587;-72
2022/12/21 08:34:36;;;;;;;4.40;3.97;;;10.60;69.60;;;;;;20728;6843;120066;-71
2022/12/21 08:37:03;;;;;;;5.03;4.63;;;10.70;69.40;;;;;;20531;6843;277723;-72
2022/12/21 08:39:29;;;;;;;4.87;4.47;;;10.90;68.50;;;;;;20534;6843;336687;-71
2022/12/21 08:41:55;;;;;;;4.43;4.00;;;10.90;68.50;;;;;;20747;6843;118750;-71
2022/12/21 08:44:21;;;;;;;4.63;4.33;;;10.60;68.80;;;;;;20753;6843;119739;-71
2022/12/21 08:46:47;;;;;;;5.50;4.50;;;10.60;68.80;;;;;;20749;6843;118024;-70
2022/12/21 08:49:12;;;;;;;5.12;4.50;;;10.40;69.80;;;;;;20733;6843;118707;-71
2022/12/21 08:51:38;;;;;;;5.60;5.10;;;10.20;70.60;;;;;;20747;6843;118300;-70
2022/12/21 08:54:06;;;;;;;6.20;5.60;;;10.10;71.50;;;;;;20538;6843;307972;-70
2022/12/21 08:56:32;;;;;;;6.90;6.23;;;10.20;71.30;;;;;;20550;6843;322404;-70
2022/12/21 08:59:01;;;;;;;6.43;5.70;;;10.60;69.90;;;;;;20742;6843;118740;-72
2022/12/21 09:01:26;;;;;;;6.90;6.20;;;10.60;69.20;;;;;;20547;6843;277668;-71
2022/12/21 09:03:52;;;;;;;7.00;6.40;;;10.70;68.80;;;;;;20541;6844;307673;-71
2022/12/21 09:06:18;;;;;;;7.00;6.40;;;10.90;67.60;;;;;;20546;6844;297936;-71
2022/12/21 09:08:43;;;;;;;7.40;6.57;;;11.20;66.60;;;;;;20540;6844;308159;-71
2022/12/21 09:11:09;;;;;;;6.10;5.60;;;11.10;66.60;;;;;;20727;6844;117545;-71
2022/12/21 09:13:35;;;;;;;7.72;7.05;;;11.10;65.80;;;;;;20528;6844;336622;-71
2022/12/21 09:16:02;;;;;;;9.93;5.93;;;10.90;66.30;;;;;;20748;6844;117141;-71
2022/12/21 09:18:27;;;;;;;5.33;4.93;;;10.90;66.30;;;;;;20753;6844;118289;-71
2022/12/21 09:20:53;;;;;;;8.37;6.77;;;10.70;67.20;;;;;;20533;6844;305726;-71
2022/12/21 09:23:18;;;;;;;7.65;7.00;;;10.70;67.50;;;;;;20509;6844;310178;-71
2022/12/21 09:25:44;;;;;;;8.03;6.47;;;10.90;66.50;;;;;;20754;6844;117587;-71
2022/12/21 09:28:10;;;;;;;8.20;7.57;;;10.90;67.00;;;;;;20547;6844;307586;-71
2022/12/21 09:30:36;;;;;;;8.67;7.97;;;10.90;67.00;;;;;;20536;6844;307224;-71
2022/12/21 09:33:01;;;;;;;8.97;7.20;;;11.10;66.20;;;;;;20523;6844;282039;-72
2022/12/21 09:35:27;;;;;;;11.18;10.27;;;11.20;65.50;;;;;;20530;6844;334332;-71
2022/12/21 09:37:53;;;;;;;10.03;9.13;;;11.50;64.30;;;;;;20538;6842;307229;-71
2022/12/21 09:40:19;;;;;;;7.33;6.70;;;11.40;64.20;;;;;;20751;6843;117098;-72
2022/12/21 09:43:01;;;;;;;6.90;6.40;;;11.30;64.60;;;;;;20742;6843;120478;-71
2022/12/21 09:46:03;;;;;;;9.70;8.37;;;10.90;65.60;;;;;;20526;6843;278593;-72
2022/12/21 09:48:48;;;;;;;10.02;8.90;;;10.90;66.70;;;;;;20535;6843;340787;-70
2022/12/21 09:51:14;;;;;;;11.17;9.90;;;11.20;66.00;;;;;;20507;6843;308485;-70
2022/12/21 09:53:39;;;;;;;10.40;8.07;;;11.40;65.50;;;;;;20741;6843;117480;-70
2022/12/21 09:56:05;;;;;;;10.63;9.70;;;11.20;65.50;;;;;;20517;6843;310469;-70
2022/12/21 09:58:31;;;;;;;11.73;9.87;;;11.30;66.20;;;;;;20532;6843;306745;-70
2022/12/21 10:01:07;;;;;;;8.00;7.17;;;11.30;65.40;;;;;;20714;6843;118551;-71
2022/12/21 10:03:45;;;;;;;8.37;7.17;;;11.20;65.70;;;;;;20722;6843;117207;-70
2022/12/21 10:06:15;;;;;;;8.70;8.03;;;10.90;66.90;;;;;;20537;6843;307623;-70
2022/12/21 10:08:40;;;;;;;8.63;7.50;;;10.90;67.40;;;;;;20753;6843;118307;-70
2022/12/21 10:11:42;;;;;;;9.35;6.95;;;10.80;67.40;;;;;;20684;6843;121247;-70
2022/12/21 10:14:29;;;;;;;9.10;7.70;;;10.80;68.50;;;;;;20542;6843;277342;-71
2022/12/21 10:17:03;;;;;;;8.10;7.40;;;10.80;67.90;;;;;;20540;6844;284409;-71
2022/12/21 10:19:55;;;;;;;8.47;7.73;;;11.30;65.60;;;;;;20522;6844;307653;-70
2022/12/21 10:22:31;;;;;;;8.30;7.60;;;11.50;64.80;;;;;;20537;6844;336280;-70
2022/12/21 10:24:56;;;;;;;6.53;6.03;;;11.50;64.80;;;;;;20732;6844;118856;-71
2022/12/21 10:27:22;;;;;;;8.55;7.47;;;11.30;65.10;;;;;;20543;6844;306648;-71
2022/12/21 10:29:48;;;;;;;6.43;5.83;;;11.30;64.90;;;;;;20743;6844;119232;-71
2022/12/21 10:32:13;;;;;;;9.60;7.00;;;11.10;65.60;;;;;;20747;6844;117144;-70
2022/12/21 10:34:43;;;;;;;8.27;5.97;;;10.90;66.60;;;;;;20753;6844;117101;-71
2022/12/21 10:37:11;;;;;;;6.25;5.62;;;10.70;67.60;;;;;;20717;6844;118262;-71
2022/12/21 10:39:38;;;;;;;6.90;5.57;;;10.40;69.40;;;;;;20751;6844;117173;-71
2022/12/21 10:42:16;;;;;;;5.97;5.37;;;10.40;69.30;;;;;;20750;6844;120158;-71
2022/12/21 10:44:42;;;;;;;9.48;8.50;;;10.30;70.10;;;;;;20547;6844;311595;-70
2022/12/21 10:47:13;;;;;;;9.52;8.55;;;10.50;70.30;;;;;;20528;6844;278235;-70
2022/12/21 10:49:40;;;;;;;10.30;9.30;;;11.20;67.80;;;;;;20535;6842;307048;-70
2022/12/21 10:52:32;;;;;;;8.27;7.57;;;11.20;67.80;;;;;;20746;6843;117235;-69
2022/12/21 10:54:58;;;;;;;7.20;6.70;;;11.00;68.10;;;;;;20733;6843;119253;-71
2022/12/21 10:57:32;;;;;;;8.27;7.37;;;11.00;68.10;;;;;;20750;6843;117274;-70
2022/12/21 10:59:55;;;;;;;9.43;8.50;;;10.80;68.90;;;;;;20530;6843;330453;-72
2022/12/21 11:02:30;;;;;;;8.37;7.50;;;10.90;68.80;;;;;;20738;6843;117536;-73
2022/12/21 11:04:56;;;;;;;9.43;8.35;;;10.90;68.40;;;;;;20512;6843;307958;-73
2022/12/21 11:07:23;;;;;;;9.00;7.60;;;11.10;68.10;;;;;;20756;6843;117322;-74
2022/12/21 11:09:56;;;;;;;9.17;6.70;;;11.10;67.80;;;;;;20745;6843;118276;-75
2022/12/21 11:12:21;;;;;;;9.55;8.68;;;10.90;68.50;;;;;;20525;6843;336657;-75
2022/12/21 11:14:48;;;;;;;8.02;7.20;;;11.00;68.60;;;;;;20746;6843;117816;-76
2022/12/21 11:17:23;;;;;;;7.53;6.80;;;11.00;68.50;;;;;;20732;6843;118731;-76
2022/12/21 11:19:48;;;;;;;7.87;7.07;;;10.90;69.40;;;;;;20749;6843;119237;-75
2022/12/21 11:22:14;;;;;;;9.13;8.32;;;10.80;70.40;;;;;;20538;6843;277737;-76
2022/12/21 11:24:40;;;;;;;7.70;7.10;;;11.30;69.00;;;;;;20538;6843;337153;-77
2022/12/21 11:27:12;;;;;;;8.87;8.10;;;11.30;69.00;;;;;;20516;6844;307535;-73
2022/12/21 11:29:45;;;;;;;7.00;6.50;;;11.60;67.40;;;;;;20760;6844;119751;-74
2022/12/21 11:32:11;;;;;;;9.80;8.70;;;11.60;66.70;;;;;;20531;6844;309604;-76
2022/12/21 11:34:39;;;;;;;7.32;6.72;;;11.70;66.80;;;;;;20742;6844;117975;-73
2022/12/21 11:37:21;;;;;;;7.80;6.43;;;11.70;67.00;;;;;;20726;6844;117486;-71
2022/12/21 11:39:48;;;;;;;7.37;6.70;;;11.50;67.40;;;;;;20742;6844;117624;-72
2022/12/21 11:42:16;;;;;;;6.73;6.10;;;11.10;68.80;;;;;;20751;6844;117096;-73
2022/12/21 11:44:40;;;;;;;8.40;6.27;;;11.00;68.70;;;;;;20745;6844;117573;-72
2022/12/21 11:47:15;;;;;;;7.67;6.43;;;10.80;69.00;;;;;;20732;6844;120171;-73
2022/12/21 11:50:04;;;;;;;7.40;6.10;;;10.70;70.00;;;;;;20734;6844;116991;-71
2022/12/21 11:52:53;;;;;;;7.78;7.25;;;10.70;70.80;;;;;;20536;6844;336701;-71
2022/12/21 11:55:21;;;;;;;6.95;6.28;;;10.90;70.60;;;;;;20519;6844;336621;-73
2022/12/21 11:57:54;;;;;;;5.70;5.20;;;11.40;68.00;;;;;;20720;6844;117168;-73
2022/12/21 12:00:20;;;;;;;6.77;5.67;;;11.40;68.10;;;;;;20749;6842;118202;-73
2022/12/21 12:03:18;;;;;;;7.30;4.73;;;11.30;68.90;;;;;;20751;6843;116075;-72
2022/12/21 12:05:48;;;;;;;4.73;4.43;;;11.40;69.70;;;;;;20535;6843;278125;-73
2022/12/21 12:08:27;;;;;;;4.70;4.30;;;11.40;69.70;;;;;;20545;6843;307239;-73
2022/12/21 12:11:19;;;;;;;4.20;3.90;;;11.80;68.70;;;;;;20332;6843;119990;-73
2022/12/21 12:13:44;;;;;;;4.43;3.67;;;11.80;67.80;;;;;;20548;6843;306646;-73
2022/12/21 12:16:30;;;;;;;3.90;3.60;;;11.90;67.90;;;;;;20342;6843;301316;-75
2022/12/21 12:18:56;;;;;;;2.90;2.65;;;12.20;67.20;;;;;;20532;6843;309372;-72
2022/12/21 12:21:33;;;;;;;2.40;2.25;;;12.40;66.20;;;;;;20742;6840;117133;-72
2022/12/21 12:24:18;;;;;;;2.50;2.33;;;12.30;65.90;;;;;;20740;6840;118477;-72
2022/12/21 12:26:57;;;;;;;2.60;2.50;;;12.10;66.80;;;;;;20515;6840;276833;-72
2022/12/21 12:30:03;;;;;;;3.20;2.30;;;12.10;66.90;;;;;;20533;6847;309138;-72
2022/12/21 12:32:38;;;;;;;2.60;2.40;;;12.40;65.80;;;;;;20530;6847;308052;-72
2022/12/21 12:35:10;;;;;;;2.37;2.27;;;12.60;64.60;;;;;;20684;6847;121092;-73
2022/12/21 12:37:45;;;;;;;5.97;5.47;;;12.40;64.70;;;;;;20486;6862;293695;-73
2022/12/21 12:40:28;;;;;;;4.57;4.37;;;12.30;65.70;;;;;;20686;6862;118842;-77
2022/12/21 12:43:00;;;;;;;3.10;2.80;;;12.30;65.70;;;;;;20671;6862;117483;-77
2022/12/21 12:45:35;;;;;;;2.87;2.50;;;12.00;66.30;;;;;;20666;6862;118006;-72
2022/12/21 12:48:26;;;;;;;2.60;2.50;;;11.80;67.00;;;;;;20449;6862;310279;-72
2022/12/21 12:50:58;;;;;;;2.33;2.23;;;11.90;67.80;;;;;;20666;6862;118777;-74
2022/12/21 12:53:27;;;;;;;2.90;2.70;;;11.90;67.30;;;;;;20530;6844;330799;-71
2022/12/21 12:56:13;;;;;;;2.75;2.50;;;11.90;67.10;;;;;;20522;6844;337147;-73
2022/12/21 12:58:51;;;;;;;2.50;2.30;;;12.20;66.50;;;;;;20526;6844;278453;-75